Sonic Adventure (DX): Overall Rankings

Records: Times | Rings | Scores | Races | Bosses | Freestyle
Leaders: Times | Rings | Scores | Races | Bosses | Freestyle | Overall
Rank Order Asc Player Percent Points Date
1 Sonicspeedruner 98.3% 287 02-22-17
2 Gamepro011 98.2% 304 02-22-17
3 DarkPolarNight 96.2% 634 02-22-17
4 Jawzun 93.5% 1094 02-22-17
5 Dashjump 92.1% 1328 02-22-17
6 DarkspinesSonic 90.2% 1646 02-22-17
7 Avento128bits 89.9% 1696 02-22-17
8 ike6252 89.8% 1708 02-22-17
9 F-Man 88.0% 2025 02-22-17
10 Coolfansonic 86.6% 2258 02-22-17
11 HyperSonic7701 84.7% 2580 02-22-17
12 yoshifan 82.9% 2887 02-22-17
13 TheRealShadnic 82.8% 2896 02-22-17
14 frankoredstrato 82.7% 2924 02-22-17
15 francisco 81.8% 3074 02-22-17
16 Marth 81.4% 3133 02-22-17
17 InferSaime 80.1% 3351 02-22-17
18 PfoSonic 79.7% 3422 02-22-17
19 Paragod 79.4% 3481 02-22-17
20 THC98 78.7% 3596 02-22-17
21 Stefan 76.1% 4039 02-22-17
22 RPGnutter 73.9% 4401 02-22-17
23 bertin 73.8% 4424 02-22-17
24 sonicam 71.7% 4774 02-22-17
25 drminus 70.5% 4982 02-22-17
26 xXMegaManXx 70.3% 5004 02-22-17
27 Combo 65.8% 5775 02-22-17
28 SkyLights 64.6% 5980 02-22-17
29 Diamond 62.5% 6333 02-22-17
30 Auriman1 60.6% 6657 02-22-17
31 OmegaDJ 60.5% 6670 02-22-17
32 GerbilSoft 60.5% 6673 02-22-17
33 magnum12 59.6% 6813 02-22-17
34 Thorn 57.5% 7168 02-22-17
35 P1 Pause 57.3% 7204 02-22-17
36 mike89 56.1% 7404 02-22-17
37 Groudon199 54.3% 7724 02-22-17
38 Dave Cramer 54.2% 7734 02-22-17
39 chainchumper 54.1% 7747 02-22-17
40 Parax 53.4% 7866 02-22-17
41 Shadow Jacky 53.2% 7905 02-22-17
42 Psymar 48.0% 8784 02-22-17
43 Arch 47.3% 8906 02-22-17
44 Chao_Fan 46.4% 9051 02-22-17
45 mauserman 45.4% 9221 02-22-17
46 Quartz 45.3% 9245 02-22-17
47 teamblackarms 44.5% 9372 02-22-17
48 Psyknux 43.4% 9550 02-22-17
49 James_Bertolli 43.4% 9566 02-22-17
50 NintenDan 43.0% 9629 02-22-17
51 Webber3000 42.6% 9699 02-22-17
52 Turbos 42.3% 9737 02-22-17
53 Ring Rush 42.0% 9799 02-22-17
54 Cream147 41.9% 9804 02-22-17
55 videogamemaster777 41.8% 9823 02-22-17
56 Siavash Tazari 41.6% 9856 02-22-17
57 Fr3nZy 41.5% 9871 02-22-17
58 buddychaos0415 41.2% 9935 02-22-17
59 SadisticMystic 40.3% 10084 02-22-17
60 eggFL 39.7% 10179 02-22-17
61 Redd 38.7% 10352 02-22-17
62 SB737 38.2% 10441 02-22-17
63 supersonic465 37.3% 10581 02-22-17
64 supersonicfan 37.1% 10629 02-22-17
65 chaos shadow 36.6% 10710 02-22-17
66 FuzZerd 35.8% 10842 02-22-17
67 Aitamen 35.3% 10926 02-22-17
68 elecmouse101 35.0% 10979 02-22-17
69 danieldude 34.8% 11004 02-22-17
70 Austinf 33.7% 11191 02-22-17
70 metanightmare22 33.7% 11191 02-22-17
72 Cyan Ryan 33.6% 11211 02-22-17
73 dabestgamer 33.4% 11256 02-22-17
74 MiStEr_ShAoLiN 33.2% 11289 02-22-17
75 Andrea Ritsu 32.3% 11431 02-22-17
76 itsPersonnal 32.0% 11489 02-22-17
77 Cybrax 31.1% 11638 02-22-17
78 SilvertheAlmighty 31.1% 11640 02-22-17
79 Nimrod 29.7% 11878 02-22-17
80 VMU Player Banned 29.1% 11982 02-22-17
81 Staf 28.8% 12018 02-22-17
82 ethmar 28.8% 12034 02-22-17
83 Omega Rafael Santos 28.4% 12087 02-22-17
83 The T 28.4% 12087 02-22-17
85 EngiNerd 28.2% 12124 02-22-17
86 lordmetalsonic 27.6% 12221 02-22-17
87 Hipertails12 27.1% 12313 02-22-17
88 welldooder64 27.0% 12324 02-22-17
89 GreatStar 26.8% 12371 02-22-17
90 The Great Lord Mick 26.7% 12380 02-22-17
91 Sondow 26.7% 12384 02-22-17
92 LinksDarkArrows 26.5% 12418 02-22-17
93 Mastakirby 26.4% 12427 02-22-17
94 Skylace 25.4% 12596 02-22-17
95 a_moustache 24.4% 12775 02-22-17
96 Rolken 24.0% 12836 02-22-17
97 Kogen Player Banned 22.3% 13125 02-22-17
98 Xia 22.2% 13139 02-22-17
99 Spinballwizard 22.2% 13140 02-22-17
100 Twilisailor 21.7% 13218 02-22-17
101 f0rever_zer0 21.7% 13222 02-22-17
102 Cutiefox 21.5% 13253 02-22-17
103 Don 21.5% 13263 02-22-17
104 Game_Complete 21.4% 13277 02-22-17
105 Miles9999 21.4% 13280 02-22-17
106 andres430 20.9% 13360 02-22-17
107 Cruizer 20.7% 13401 02-22-17
108 iSonicKid2K 20.6% 13415 02-22-17
109 SADXTryHard 20.2% 13477 02-22-17
110 GarnetPrincess 19.8% 13547 02-22-17
111 AxlThunder 19.1% 13664 02-22-17
112 knuckles_sonic8 18.8% 13710 02-22-17
113 KinkyCadence 18.3% 13799 02-22-17
114 The Knuckles Chao 18.3% 13800 02-22-17
115 Team_Yoshi 18.0% 13848 02-22-17
116 Termon 17.9% 13866 02-22-17
117 LittleBigness 17.9% 13871 02-22-17
118 SonicWinDX 17.7% 13897 02-22-17
119 FoxBoy 17.6% 13921 02-22-17
120 Drakodan 16.9% 14040 02-22-17
121 Sonic Singularity 15.9% 14208 02-22-17
122 Pokemonmaster888 15.7% 14236 02-22-17
123 BigAL49 14.8% 14397 02-22-17
124 MPit08 14.6% 14424 02-22-17
125 SilverSonic 14.6% 14430 02-22-17
126 WeegeeZV 14.3% 14477 02-22-17
127 koinu93 14.1% 14504 02-22-17
128 Mo Player Banned 14.1% 14510 02-22-17
129 HyperSonic64 13.8% 14567 02-22-17
130 Cod4Scopes 13.7% 14573 02-22-17
131 booo95 13.6% 14595 02-22-17
132 Jerzia 13.4% 14622 02-22-17
133 Chawkk 13.3% 14644 02-22-17
133 paulie9990 13.3% 14644 02-22-17
135 Hunters13 13.0% 14688 02-22-17
136 SuperSonic101 13.0% 14694 02-22-17
137 Maxinfamily 12.9% 14707 02-22-17
138 Kanimayo_Jp 12.7% 14755 02-22-17
139 LilZero 12.6% 14761 02-22-17
140 BrokenArthritis 12.5% 14779 02-22-17
141 PsyBorg 12.4% 14794 02-22-17
142 Flying Fox 12.4% 14798 02-22-17
143 Therio 12.1% 14851 02-22-17
144 sonicspeed 12.0% 14866 02-22-17
145 douglas 11.8% 14900 02-22-17
146 Matt_TY 11.4% 14966 02-22-17
147 thewaytodawnnn 11.4% 14971 02-22-17
148 Cooljay 10.9% 15050 02-22-17
149 SuperBlitzCraig 10.8% 15073 02-22-17
150 joecoolgames 10.7% 15083 02-22-17
151 SeaWolf 10.7% 15087 02-22-17
152 videogamer1014 10.5% 15124 02-22-17
153 N 10.3% 15145 02-22-17
154 AC-Tygo 10.2% 15165 02-22-17
155 welshmoose05 10.2% 15177 02-22-17
156 OddCook 10.0% 15211 02-22-17
157 TFEC Headshot 9.9% 15226 02-22-17
158 crazy1993 9.8% 15229 02-22-17
159 Mcshuggets 9.7% 15259 02-22-17
160 niscool 9.4% 15303 02-22-17
161 imazor017 9.3% 15316 02-22-17
162 Mariobutch 9.2% 15335 02-22-17
163 nuckrieg 9.2% 15341 02-22-17
164 SonicAD 9.1% 15348 02-22-17
165 SirTobbii 9.1% 15362 02-22-17
166 Shadowthegreat 9.0% 15367 02-22-17
167 superjupi 9.0% 15373 02-22-17
168 Powerjohn25 8.7% 15419 02-22-17
169 sonamyfan666 8.7% 15422 02-22-17
170 iarebored 8.6% 15435 02-22-17
171 SaviourDC 8.5% 15450 02-22-17
171 SonicKnuckles 8.5% 15450 02-22-17
173 Werey 8.3% 15498 02-22-17
174 adf 8.2% 15508 02-22-17
175 Megaman EXE565 8.0% 15545 02-22-17
176 ArcticDragon 7.6% 15612 02-22-17
177 Platformer 7.6% 15613 02-22-17
178 timpkmn89 7.4% 15637 02-22-17
179 FocusSight64 7.3% 15652 02-22-17
180 Swift Hobo 7.3% 15657 02-22-17
181 wheatrich 7.3% 15668 02-22-17
182 Rickyman48 7.1% 15686 02-22-17
183 KitsuneYamaro 7.0% 15710 02-22-17
184 Triseena 6.8% 15743 02-22-17
185 SonataSpinDash 6.7% 15769 02-22-17
186 CyberShadow 6.5% 15789 02-22-17
187 dShadow 6.5% 15794 02-22-17
188 Starlight Sable 6.5% 15796 02-22-17
189 slade23 6.5% 15801 02-22-17
190 Destroyer121121 6.4% 15808 02-22-17
191 IsisDazs 6.3% 15822 02-22-17
192 BlankTH 6.2% 15854 02-22-17
193 Monkeh 6.0% 15882 02-22-17
194 Badlex727 6.0% 15887 02-22-17
195 SonicU260 5.8% 15912 02-22-17
196 Richied 5.8% 15913 02-22-17
197 DaDude 5.7% 15927 02-22-17
198 Vicklaw 5.7% 15937 02-22-17
199 Zip 5.6% 15950 02-22-17
200 sonicd5 5.6% 15953 02-22-17
201 ALundstrom10 5.2% 16014 02-22-17
202 VeritasDL 5.2% 16018 02-22-17
203 tal39h 5.2% 16021 02-22-17
204 Kirbymon30 5.1% 16031 02-22-17
205 soniccoloursunleashed 4.9% 16059 02-22-17
206 Drflash55 4.9% 16062 02-22-17
207 Bass 4.8% 16082 02-22-17
208 neaolas 4.7% 16095 02-22-17
209 Yish 4.7% 16101 02-22-17
210 zapp 4.6% 16108 02-22-17
211 UninspiredUsername 4.6% 16116 02-22-17
212 superiorsonic 4.6% 16118 02-22-17
213 Sonicsuperstar1 4.6% 16124 02-22-17
214 gamefreak1292 4.5% 16135 02-22-17
215 Chaos_Overlord 4.2% 16184 02-22-17
216 TakaRikka 4.1% 16207 02-22-17
217 Valfore 4.0% 16216 02-22-17
218 ShinigamiMachine 3.8% 16246 02-22-17
219 Regano1000 3.8% 16257 02-22-17
220 MK 3.6% 16279 02-22-17
221 Ace747 3.6% 16289 02-22-17
222 Illidan 3.2% 16354 02-22-17
223 HHNNBBHHN 3.2% 16355 02-22-17
224 Venick409 3.1% 16365 02-22-17
225 Brian_pso 3.1% 16367 02-22-17
226 Sithwarrior26 3.1% 16368 02-22-17
227 nman36 3.1% 16370 02-22-17
228 Egor305 3.0% 16392 02-22-17
229 ingx24 2.9% 16395 02-22-17
230 TheChaosEmeraIds 2.9% 16398 02-22-17
231 SkyBon 2.9% 16401 02-22-17
232 Nickson98 2.9% 16405 02-22-17
233 dekki1234 2.8% 16413 02-22-17
234 Fozer 2.8% 16415 02-22-17
235 FSSRandomvids 2.8% 16425 02-22-17
236 Colomb_30 2.8% 16427 02-22-17
237 Aiko 2.7% 16440 02-22-17
238 sonic29887 2.7% 16443 02-22-17
239 TheUltraBlur 2.6% 16448 02-22-17
240 1stKirbyever 2.6% 16455 02-22-17
241 TimTH 2.6% 16462 02-22-17
242 Th4tN1nj4Turtl3 2.4% 16490 02-22-17
243 Cort_pso 2.3% 16501 02-22-17
244 ieatatsonic 2.3% 16508 02-22-17
244 Mariosonic15 2.3% 16508 02-22-17
246 Doom-9 2.3% 16509 02-22-17
247 HermitHelmet 2.1% 16532 02-22-17
247 MStitomix 2.1% 16532 02-22-17
249 Artie 2.0% 16548 02-22-17
249 Got4n 2.0% 16548 02-22-17
251 SuperSonic71087 2.0% 16556 02-22-17
252 Jose_15 2.0% 16561 02-22-17
253 Questionguy555 1.9% 16565 02-22-17
254 SuperSonicfan9595 1.9% 16578 02-22-17
255 djmat 1.9% 16579 02-22-17
256 sonicandamy Player Banned 1.7% 16600 02-22-17
257 LancexExWx 1.7% 16609 02-22-17
258 Paixii 1.7% 16610 02-22-17
259 son1cgu1tar 1.7% 16613 02-22-17
260 Heroes_Hater 1.7% 16614 02-22-17
261 BallzeH 1.6% 16625 02-22-17
262 Mankster101 1.6% 16631 02-22-17
263 BecauseWarAnvil 1.5% 16634 02-22-17
264 Jamixesa 1.5% 16637 02-22-17
265 Crydio 1.5% 16646 02-22-17
266 Shanekilz 1.4% 16650 02-22-17
267 SpiritDragon1995 1.4% 16651 02-22-17
268 ReuelBrony 1.4% 16659 02-22-17
269 MarewBFN 1.4% 16664 02-22-17
270 stanski 1.3% 16667 02-22-17
271 Sonique Hedgehog 1.3% 16672 02-22-17
272 p0ker 1.3% 16679 02-22-17
273 Blue Infamy 1.2% 16684 02-22-17
274 ErrortheCucco 1.2% 16695 02-22-17
275 Rikum22 1.2% 16698 02-22-17
276 Arthas 1.1% 16700 02-22-17
277 sonic1001 1.1% 16706 02-22-17
278 AJSIV 1.1% 16711 02-22-17
279 syco1098 1.1% 16713 02-22-17
280 WingedInsignia 1.1% 16714 02-22-17
281 Sonic the Hedgehod16 1.1% 16715 02-22-17
282 Calfd 1.0% 16724 02-22-17
282 sonicfan9 1.0% 16724 02-22-17
284 BlackArmsShadow 0.9% 16735 02-22-17
285 themachoman202 0.9% 16737 02-22-17
286 shadowblast63 Player Banned 0.9% 16744 02-22-17
287 Greham Adelphis 0.9% 16745 02-22-17
288 Fivavoa 0.9% 16747 02-22-17
288 Mr. Jones 0.9% 16747 02-22-17
290 darkstarblaze 0.9% 16748 02-22-17
291 arcfx1985 0.8% 16750 02-22-17
291 MastaToken 0.8% 16750 02-22-17
293 Ben1502 0.8% 16752 02-22-17
293 ptorflaxendrosis 0.8% 16752 02-22-17
295 TommyeAsY 0.8% 16753 02-22-17
296 FlandreScarlet9999vr 0.8% 16758 02-22-17
296 Gvozdevik 0.8% 16758 02-22-17
298 Knuckles 0.8% 16760 02-22-17
298 Zeldocto 0.8% 16760 02-22-17
300 KaM Mark MaK 0.8% 16764 02-22-17
301 BeeAwwb 0.8% 16765 02-22-17
302 ShadouZaHejjihoggu 0.7% 16772 02-22-17
303 Sonic The Star 0.7% 16779 02-22-17
304 darkersupershadic 0.7% 16780 02-22-17
305 Sonic62 0.7% 16781 02-22-17
306 Sarger001 0.6% 16784 02-22-17
307 dragondragon18 0.6% 16786 02-22-17
307 Grady219 0.6% 16786 02-22-17
307 SonicK100 0.6% 16786 02-22-17
310 Sogeking 0.6% 16787 02-22-17
311 Shadygamerfreak 0.6% 16788 02-22-17
312 Jawaah 0.6% 16793 02-22-17
313 Antek 0.6% 16796 02-22-17
314 Klaus 0.6% 16798 02-22-17
315 SilverK 0.6% 16799 02-22-17
316 BioShadow 0.5% 16802 02-22-17
317 SpinDashMaster 0.5% 16806 02-22-17
318 Videogamer123 0.5% 16810 02-22-17
319 oTaiIilLsS 0.4% 16823 02-22-17
320 isaihtb11 0.4% 16824 02-22-17
321 OhNoes! 0.4% 16826 02-22-17
322 zaktu40 0.4% 16827 02-22-17
323 gaara1234 0.4% 16830 02-22-17
323 Mad Andy 0.4% 16830 02-22-17
323 S-MS32X-S 0.4% 16830 02-22-17
326 gamed00d 0.4% 16834 02-22-17
327 Mister_Slick 0.3% 16841 02-22-17
328 Sonic06Fan 0.3% 16844 02-22-17
329 Rush Hero 0.3% 16846 02-22-17
330 SonicMega167 0.3% 16851 02-22-17
331 Iwannabelink 0.2% 16852 02-22-17
332 sonknuck23 0.2% 16856 02-22-17
333 DanielTheFalcon 0.2% 16864 02-22-17
333 gamer1245 0.2% 16864 02-22-17
335 Burningskull123 0.1% 16870 02-22-17
336 Sonicontherun 0.1% 16881 02-22-17
337 Lil_Dude 0.1% 16885 02-22-17
338 antiwwe 0.0% 16887 02-22-17
339 Genuine Hedgehog 0.0% 16891 02-22-17
340 Cbwade15 0.0% 16892 02-22-17
341 Tyrouble 0.0% 16895 02-22-17
342 MegabombBlade 0.0% 16902 02-22-17
342 neji_hyuuga 0.0% 16902 02-22-17
342 Over 0.0% 16902 02-22-17
342 sdj6707 Player Banned 0.0% 16902 02-22-17
342 Tran Sonic Fan Player Banned 0.0% 16902 02-22-17

This page is using the New Data Table System. [FUTURE]

Game ID: 3 | Category ID: 10
Hits: 68,687 | Hits This Month: 206 | DB Calls: 21 | Mem Usage: 5.47 MB | Time: 0.19s | Printable

The Sonic Center v3.9 Hax in Progress
Copyright 2003-2011 by The Sonic Center Team.